createdAt,value
2023-04-18T00:01:57.239Z,19151.34
2023-04-18T00:04:26.048Z,19139.16
2023-04-18T00:06:54.217Z,19141.19
2023-04-18T00:09:22.346Z,19151.34
2023-04-18T00:11:50.536Z,19171.66
2023-04-18T00:14:20.693Z,19151.34
2023-04-18T00:16:48.859Z,19137.13
2023-04-18T00:19:18.329Z,19159.47
2023-04-18T00:21:47.038Z,19122.91
2023-04-18T00:24:15.351Z,19137.13
2023-04-18T00:26:43.612Z,19118.84
2023-04-18T00:29:11.780Z,19086.31
2023-04-18T00:31:41.469Z,19086.31
2023-04-18T00:34:09.606Z,19129.00
2023-04-18T00:36:37.709Z,19118.84
2023-04-18T00:39:06.599Z,19159.47
2023-04-18T00:41:34.692Z,19102.56
2023-04-18T00:44:02.834Z,19088.34
2023-04-18T00:46:31.141Z,19114.78
2023-04-18T00:49:00.953Z,19139.16
2023-04-18T00:51:29.373Z,19104.59
2023-04-18T00:53:58.019Z,19124.94
2023-04-18T00:56:26.688Z,19108.69
2023-04-18T00:58:55.353Z,19116.81
2023-04-18T01:01:23.557Z,19122.91
2023-04-18T01:03:51.972Z,19114.78
2023-04-18T01:06:23.531Z,19106.66
2023-04-18T01:08:51.702Z,19108.69
2023-04-18T01:11:20.050Z,19129.00
2023-04-18T01:14:01.020Z,19086.31
2023-04-18T01:16:32.779Z,19102.56
2023-04-18T01:19:01.497Z,19086.31
2023-04-18T01:21:31.371Z,19106.66
2023-04-18T01:24:12.649Z,19098.50
2023-04-18T01:26:41.445Z,19098.50
2023-04-18T01:29:09.621Z,19129.00
2023-04-18T01:31:39.457Z,19092.41
2023-04-18T01:34:09.245Z,19102.56
2023-04-18T01:36:39.509Z,19126.97
2023-04-18T01:39:07.798Z,19090.38
2023-04-18T01:41:37.326Z,19116.81
2023-04-18T01:44:06.198Z,19131.03
2023-04-18T01:46:34.388Z,19112.75
2023-04-18T01:49:02.516Z,19108.69
2023-04-18T01:51:31.292Z,19118.84
2023-04-18T01:53:59.440Z,19114.78
2023-04-18T01:56:27.641Z,19090.38
2023-04-18T01:58:57.327Z,19100.53
2023-04-18T02:01:25.464Z,19135.09
2023-04-18T02:03:54.123Z,19114.78
2023-04-18T02:06:22.452Z,19100.53
2023-04-18T02:08:50.523Z,19126.97
2023-04-18T02:11:18.674Z,19149.31
2023-04-18T02:13:46.783Z,19084.28
2023-04-18T02:16:16.322Z,19100.53
2023-04-18T02:18:45.371Z,19114.78
2023-04-18T02:21:13.508Z,19165.56
2023-04-18T02:23:41.625Z,19110.72
2023-04-18T02:26:09.711Z,19137.13
2023-04-18T02:28:39.048Z,19124.94
2023-04-18T02:31:07.736Z,19118.84
2023-04-18T02:33:37.184Z,19114.78
2023-04-18T02:36:06.806Z,19141.19
2023-04-18T02:38:34.990Z,19141.19
2023-04-18T02:41:03.094Z,19139.16
2023-04-18T02:43:31.698Z,19153.38
2023-04-18T02:45:59.794Z,19139.16
2023-04-18T02:48:28.011Z,19114.78
2023-04-18T02:51:04.375Z,19135.09
2023-04-18T02:53:32.635Z,19126.97
2023-04-18T02:56:01.252Z,19114.78
2023-04-18T02:58:29.676Z,19118.84
2023-04-18T03:00:59.736Z,19165.56
2023-04-18T03:03:27.916Z,19129.00
2023-04-18T03:05:57.386Z,19118.84
2023-04-18T03:08:26.054Z,19122.91
2023-04-18T03:10:56.257Z,19122.91
2023-04-18T03:13:24.978Z,19094.44
2023-04-18T03:15:53.360Z,19114.78
2023-04-18T03:18:21.706Z,19122.91
2023-04-18T03:20:49.909Z,19153.38
2023-04-18T03:23:19.629Z,19167.59
2023-04-18T03:25:47.894Z,19159.47
2023-04-18T03:28:16.002Z,19147.28
2023-04-18T03:30:44.085Z,19112.75
2023-04-18T03:33:13.191Z,19151.34
2023-04-18T03:35:41.426Z,19165.56
2023-04-18T03:38:09.571Z,19165.56
2023-04-18T03:40:39.032Z,19139.16
2023-04-18T03:43:07.126Z,19161.50
2023-04-18T03:45:35.355Z,19131.03
2023-04-18T03:48:03.967Z,19124.94
2023-04-18T03:50:32.199Z,19149.31
2023-04-18T03:53:00.687Z,19155.41
2023-04-18T03:55:29.403Z,19141.19
2023-04-18T03:57:59.145Z,19122.91
2023-04-18T04:00:27.503Z,19131.03
2023-04-18T04:02:55.909Z,19110.72
2023-04-18T04:05:24.196Z,19129.00
2023-04-18T04:07:52.400Z,19161.50
2023-04-18T04:10:20.790Z,19118.84
2023-04-18T04:12:48.944Z,19122.91
2023-04-18T04:15:18.714Z,19135.09
2023-04-18T04:17:47.005Z,19126.97
2023-04-18T04:20:15.436Z,19149.31
2023-04-18T04:22:43.742Z,19122.91
2023-04-18T04:25:13.806Z,19120.88
2023-04-18T04:27:42.709Z,19137.13
2023-04-18T04:30:13.397Z,19126.97
2023-04-18T04:32:44.637Z,19157.44
2023-04-18T04:35:12.825Z,19143.22
2023-04-18T04:37:41.331Z,19143.22
2023-04-18T04:40:11.170Z,19133.06
2023-04-18T04:42:40.982Z,19157.44
2023-04-18T04:45:10.858Z,19139.16
2023-04-18T04:47:39.076Z,19137.13
2023-04-18T04:50:14.601Z,19139.16
2023-04-18T04:52:42.919Z,19163.53
2023-04-18T04:55:11.616Z,19143.22
2023-04-18T04:57:39.794Z,19108.69
2023-04-18T05:00:09.618Z,19183.84
2023-04-18T05:02:37.961Z,19157.44
2023-04-18T05:05:08.707Z,19145.25
2023-04-18T05:07:36.901Z,19143.22
2023-04-18T05:10:06.057Z,19151.34
2023-04-18T05:12:34.215Z,19149.31
2023-04-18T05:15:02.478Z,19181.81
2023-04-18T05:17:30.831Z,19185.88
2023-04-18T05:19:58.969Z,19179.78
2023-04-18T05:22:28.421Z,19167.59
2023-04-18T05:24:56.501Z,19169.63
2023-04-18T05:27:24.942Z,19177.75
2023-04-18T05:29:53.079Z,19147.28
2023-04-18T05:32:21.335Z,19177.75
2023-04-18T05:34:50.111Z,19171.66
2023-04-18T05:37:18.224Z,19171.66
2023-04-18T05:39:47.682Z,19173.69
2023-04-18T05:42:15.798Z,19157.44
2023-04-18T05:44:43.870Z,19187.91
2023-04-18T05:47:12.035Z,19179.78
2023-04-18T05:49:40.146Z,19155.41
2023-04-18T05:52:08.260Z,19179.78
2023-04-18T05:54:36.434Z,19151.34
2023-04-18T05:57:05.917Z,19167.59
2023-04-18T05:59:34.048Z,19194.03
2023-04-18T06:02:02.190Z,19212.31
2023-04-18T06:04:30.450Z,19189.97
2023-04-18T06:06:58.660Z,19254.97
2023-04-18T06:09:26.830Z,19271.25
2023-04-18T06:11:54.944Z,19289.53
2023-04-18T06:14:24.430Z,19275.31
2023-04-18T06:16:52.894Z,19293.59
2023-04-18T06:19:21.033Z,19285.47
2023-04-18T06:21:50.709Z,19246.84
2023-04-18T06:24:18.846Z,19297.66
2023-04-18T06:26:47.247Z,19326.09
2023-04-18T06:29:15.501Z,19311.88
2023-04-18T06:31:48.233Z,19334.22
2023-04-18T06:34:16.521Z,19326.09
2023-04-18T06:36:44.641Z,19354.56
2023-04-18T06:39:12.763Z,19317.97
2023-04-18T06:41:40.887Z,19305.78
2023-04-18T06:44:08.994Z,19348.47
2023-04-18T06:46:37.213Z,19356.59
2023-04-18T06:49:06.824Z,19413.47
2023-04-18T06:51:34.934Z,19374.88
2023-04-18T06:54:03.136Z,19429.75
2023-04-18T06:56:31.415Z,19429.75
2023-04-18T06:58:59.507Z,19395.19
2023-04-18T07:01:27.680Z,19387.06
2023-04-18T07:03:55.936Z,19429.75
2023-04-18T07:06:26.169Z,19423.66
2023-04-18T07:08:59.891Z,19443.97
2023-04-18T07:11:28.270Z,19437.88
2023-04-18T07:13:56.437Z,19427.72
2023-04-18T07:16:24.673Z,19452.09
2023-04-18T07:18:52.814Z,19450.06
2023-04-18T07:21:21.030Z,19421.63
2023-04-18T07:23:50.511Z,19435.84
2023-04-18T07:26:18.991Z,19383.00
2023-04-18T07:28:47.103Z,19383.00
2023-04-18T07:31:16.618Z,19346.44
2023-04-18T07:33:45.006Z,19370.81
2023-04-18T07:36:13.432Z,19415.50
2023-04-18T07:38:41.597Z,19427.72
2023-04-18T07:41:11.364Z,19425.69
2023-04-18T07:43:40.365Z,19446.00
2023-04-18T07:46:08.887Z,19435.84
2023-04-18T07:48:37.139Z,19419.59
2023-04-18T07:51:05.738Z,19421.63
2023-04-18T07:53:33.945Z,19393.16
2023-04-18T07:56:02.026Z,19474.44
2023-04-18T07:58:31.524Z,19462.25
2023-04-18T08:00:59.767Z,19521.19
2023-04-18T08:03:29.711Z,19492.75
2023-04-18T08:05:57.985Z,19509.00
2023-04-18T08:08:26.056Z,19537.44
2023-04-18T08:10:54.204Z,19561.84
2023-04-18T08:13:22.937Z,19653.28
2023-04-18T08:15:52.657Z,19651.25
2023-04-18T08:18:20.936Z,19630.94
2023-04-18T08:20:49.044Z,19637.03
2023-04-18T08:23:17.128Z,19647.19
2023-04-18T08:25:45.746Z,19618.75
2023-04-18T08:28:14.581Z,19626.88
2023-04-18T08:30:43.150Z,19626.88
2023-04-18T08:33:12.636Z,19659.38
2023-04-18T08:35:40.835Z,19665.47
2023-04-18T08:38:09.203Z,19647.19
2023-04-18T08:40:38.498Z,19681.75
2023-04-18T08:43:09.749Z,19655.31
2023-04-18T08:45:38.548Z,19630.94
2023-04-18T08:48:07.615Z,19639.06
2023-04-18T08:50:37.150Z,19659.38
2023-04-18T08:53:05.833Z,19574.03
2023-04-18T08:55:34.414Z,19561.84
2023-04-18T08:58:02.823Z,19567.94
2023-04-18T09:00:30.949Z,19610.59
2023-04-18T09:02:59.362Z,19628.91
2023-04-18T09:05:28.448Z,19645.16
2023-04-18T09:07:57.945Z,19653.28
2023-04-18T09:10:29.105Z,19673.59
2023-04-18T09:12:58.949Z,19700.03
2023-04-18T09:15:29.659Z,19663.44
2023-04-18T09:18:00.166Z,19671.56
2023-04-18T09:20:35.151Z,19677.66
2023-04-18T09:23:10.416Z,19720.34
2023-04-18T09:25:46.367Z,19734.56
2023-04-18T09:28:26.956Z,19752.88
2023-04-18T09:30:56.908Z,19761.00
2023-04-18T09:33:32.579Z,19706.13
2023-04-18T09:36:19.964Z,19712.22
2023-04-18T09:38:52.471Z,19732.53
2023-04-18T09:41:22.802Z,19661.41
2023-04-18T09:43:52.153Z,19661.41
2023-04-18T09:46:22.441Z,19661.41
2023-04-18T09:48:51.799Z,19632.97
2023-04-18T09:51:20.830Z,19661.41
2023-04-18T09:53:51.025Z,19714.25
2023-04-18T09:56:31.905Z,19742.72
2023-04-18T09:59:09.258Z,19750.84
2023-04-18T10:01:38.712Z,19793.50
2023-04-18T10:04:07.981Z,19767.09
2023-04-18T10:06:39.599Z,19817.91
2023-04-18T10:09:10.880Z,19866.69
2023-04-18T10:11:39.442Z,19889.03
2023-04-18T10:14:12.400Z,19919.53
2023-04-18T10:16:41.969Z,19899.19
2023-04-18T10:19:28.084Z,19923.59
2023-04-18T10:21:58.438Z,19842.28
2023-04-18T10:28:02.886Z,19730.50
2023-04-18T10:30:52.541Z,19811.81
2023-04-18T10:33:33.618Z,19830.09
2023-04-18T10:36:06.690Z,19807.75
2023-04-18T10:38:38.633Z,19779.28
2023-04-18T10:41:25.240Z,19858.56
2023-04-18T10:44:23.240Z,19819.94
2023-04-18T10:47:24.458Z,19828.06
2023-04-18T10:50:01.016Z,19854.50
2023-04-18T10:52:30.301Z,19903.25
2023-04-18T10:55:21.129Z,19862.63
2023-04-18T10:57:51.701Z,19874.81
2023-04-18T11:00:23.908Z,19893.09
2023-04-18T11:02:56.515Z,19931.72
2023-04-18T11:05:28.857Z,19864.66
2023-04-18T11:07:57.255Z,19882.94
2023-04-18T11:10:27.768Z,19893.09
2023-04-18T11:12:57.315Z,19931.72
2023-04-18T11:15:29.125Z,19966.28
2023-04-18T11:18:03.503Z,19992.69
2023-04-18T11:20:40.005Z,19982.53
2023-04-18T11:23:19.605Z,20019.13
2023-04-18T11:25:49.440Z,20019.13
2023-04-18T11:28:21.823Z,20045.53
2023-04-18T11:30:51.417Z,20134.97
2023-04-18T11:33:19.990Z,20145.13
2023-04-18T11:35:48.533Z,20098.38
2023-04-18T11:38:18.440Z,20033.34
2023-04-18T11:40:49.399Z,19996.75
2023-04-18T11:43:22.758Z,19941.88
2023-04-18T11:45:57.028Z,19943.91
2023-04-18T11:48:25.773Z,19921.56
2023-04-18T11:50:54.700Z,19970.34
2023-04-18T11:53:35.977Z,20000.81
2023-04-18T11:56:04.980Z,19956.09
2023-04-18T11:58:34.228Z,19921.56
2023-04-18T12:01:18.099Z,19889.03
2023-04-18T12:04:00.953Z,19862.63
2023-04-18T12:06:29.596Z,19903.25
2023-04-18T12:09:00.529Z,19856.53
2023-04-18T12:11:28.771Z,19838.22
2023-04-18T12:13:58.130Z,19830.09
2023-04-18T12:16:29.321Z,19884.97
2023-04-18T12:19:01.366Z,19933.75
2023-04-18T12:21:30.146Z,19996.75
2023-04-18T12:23:58.545Z,19990.66
2023-04-18T12:26:27.436Z,19998.78
2023-04-18T12:28:55.549Z,20002.84
2023-04-18T12:31:23.729Z,19956.09
2023-04-18T12:33:54.376Z,19978.47
2023-04-18T12:36:23.390Z,19950.00
2023-04-18T12:38:51.974Z,19891.06
2023-04-18T12:41:20.165Z,19895.13
2023-04-18T12:43:48.335Z,19905.28
2023-04-18T12:46:16.446Z,19864.66
2023-04-18T12:48:44.569Z,19819.94
2023-04-18T12:51:14.276Z,19832.13
2023-04-18T12:53:42.373Z,19838.22
2023-04-18T12:56:10.798Z,19795.53
2023-04-18T12:58:38.990Z,19758.97
2023-04-18T13:01:07.704Z,19789.44
2023-04-18T13:03:37.037Z,19732.53
2023-04-18T13:06:06.583Z,19748.81
2023-04-18T13:08:37.436Z,19748.81
2023-04-18T13:11:05.793Z,19712.22
2023-04-18T13:13:35.670Z,19734.56
2023-04-18T13:16:04.370Z,19704.09
2023-04-18T13:18:32.492Z,19720.34
2023-04-18T13:21:00.588Z,19718.31
2023-04-18T13:23:28.698Z,19716.28
2023-04-18T13:25:58.250Z,19700.03
2023-04-18T13:28:26.692Z,19720.34
2023-04-18T13:30:54.833Z,19716.28
2023-04-18T13:33:22.976Z,19710.19
2023-04-18T13:35:51.079Z,19675.63
2023-04-18T13:38:19.197Z,19720.34
2023-04-18T13:40:47.287Z,19687.84
2023-04-18T13:43:16.798Z,19685.81
2023-04-18T13:45:44.935Z,19712.22
2023-04-18T13:48:14.450Z,19683.78
2023-04-18T13:50:44.302Z,19661.41
2023-04-18T13:53:12.484Z,19679.72
2023-04-18T13:55:40.633Z,19673.59
2023-04-18T13:58:09.794Z,19665.47
2023-04-18T14:00:39.856Z,19663.44
2023-04-18T14:03:08.056Z,19689.88
2023-04-18T14:05:36.342Z,19671.56
2023-04-18T14:08:04.754Z,19657.34
2023-04-18T14:10:32.974Z,19643.13
2023-04-18T14:13:01.709Z,19655.31
2023-04-18T14:15:30.641Z,19665.47
2023-04-18T14:18:01.044Z,19655.31
2023-04-18T14:20:34.240Z,19628.91
2023-04-18T14:23:02.408Z,19618.75
2023-04-18T14:25:31.398Z,19635.00
2023-04-18T14:28:09.146Z,19590.28
2023-04-18T14:30:38.141Z,19598.41
2023-04-18T14:33:10.147Z,19576.06
2023-04-18T14:35:38.520Z,19590.28
2023-04-18T14:38:06.707Z,19608.56
2023-04-18T14:40:34.795Z,19557.78
2023-04-18T14:43:02.998Z,19549.63
2023-04-18T14:45:34.799Z,19559.81
2023-04-18T14:48:03.250Z,19509.00
2023-04-18T14:50:33.014Z,19549.63
2023-04-18T14:53:01.160Z,19543.53
2023-04-18T14:55:29.365Z,19539.47
2023-04-18T14:57:57.757Z,19480.53
2023-04-18T15:00:26.446Z,19462.25
2023-04-18T15:02:54.889Z,19478.50
2023-04-18T15:05:24.533Z,19462.25
2023-04-18T15:07:54.005Z,19484.59
2023-04-18T15:10:22.513Z,19486.66
2023-04-18T15:12:52.250Z,19470.38
2023-04-18T15:15:20.863Z,19484.59
2023-04-18T15:17:49.023Z,19527.28
2023-04-18T15:20:17.152Z,19488.69
2023-04-18T15:22:45.263Z,19486.66
2023-04-18T15:25:16.314Z,19488.69
2023-04-18T15:27:44.540Z,19492.75
2023-04-18T15:30:14.685Z,19474.44
2023-04-18T15:32:42.927Z,19474.44
2023-04-18T15:35:11.851Z,19476.47
2023-04-18T15:37:40.045Z,19464.28
2023-04-18T15:40:11.268Z,19450.06
2023-04-18T15:42:40.901Z,19521.19
2023-04-18T15:45:10.269Z,19494.78
2023-04-18T15:47:38.700Z,19504.94
2023-04-18T15:50:10.988Z,19509.00
2023-04-18T15:52:40.830Z,19472.41
2023-04-18T15:55:12.971Z,19470.38
2023-04-18T15:57:43.044Z,19486.66
2023-04-18T16:00:23.392Z,19525.25
2023-04-18T16:02:51.868Z,19486.66
2023-04-18T16:05:20.158Z,19464.28
2023-04-18T16:07:48.256Z,19464.28
2023-04-18T16:10:16.430Z,19466.31
2023-04-18T16:12:46.056Z,19466.31
2023-04-18T16:15:14.777Z,19439.91
2023-04-18T16:17:43.051Z,19464.28
2023-04-18T16:20:11.672Z,19435.84
2023-04-18T16:22:39.793Z,19439.91
2023-04-18T16:25:09.969Z,19431.78
2023-04-18T16:27:38.119Z,19425.69
2023-04-18T16:30:09.978Z,19456.16
2023-04-18T16:32:38.999Z,19413.47
2023-04-18T16:35:10.149Z,19407.38
2023-04-18T16:37:38.995Z,19429.75
2023-04-18T16:40:10.077Z,19429.75
2023-04-18T16:42:38.595Z,19437.88
2023-04-18T16:45:09.458Z,19419.59
2023-04-18T16:47:37.747Z,19439.91
2023-04-18T16:50:07.483Z,19439.91
2023-04-18T16:52:35.597Z,19407.38
2023-04-18T16:55:03.756Z,19401.28
2023-04-18T16:57:31.848Z,19468.34
2023-04-18T17:00:02.136Z,19413.47
2023-04-18T17:02:31.820Z,19409.41
2023-04-18T17:05:00.059Z,19409.41
2023-04-18T17:07:28.232Z,19439.91
2023-04-18T17:09:56.356Z,19401.28
2023-04-18T17:12:24.773Z,19411.44
2023-04-18T17:14:52.935Z,19403.31
2023-04-18T17:17:21.040Z,19397.22
2023-04-18T17:19:50.765Z,19393.16
2023-04-18T17:22:18.935Z,19417.56
2023-04-18T17:24:47.096Z,19421.63
2023-04-18T17:27:15.213Z,19366.75
2023-04-18T17:29:43.355Z,19407.38
2023-04-18T17:32:11.482Z,19378.94
2023-04-18T17:34:39.588Z,19374.88
2023-04-18T17:37:09.062Z,19423.66
2023-04-18T17:39:37.470Z,19409.41
2023-04-18T17:42:05.739Z,19421.63
2023-04-18T17:44:33.925Z,19376.91
2023-04-18T17:47:02.476Z,19415.50
2023-04-18T17:49:34.478Z,19403.31
2023-04-18T17:52:03.023Z,19409.41
2023-04-18T17:54:33.672Z,19415.50
2023-04-18T17:57:01.884Z,19435.84
2023-04-18T17:59:30.362Z,19405.34
2023-04-18T18:01:59.524Z,19425.69
2023-04-18T18:04:27.985Z,19411.44
2023-04-18T18:06:56.575Z,19378.94
2023-04-18T18:09:24.763Z,19464.28
2023-04-18T18:11:55.903Z,19452.09
2023-04-18T18:14:24.335Z,19407.38
2023-04-18T18:16:52.532Z,19395.19
2023-04-18T18:19:21.050Z,19407.38
2023-04-18T18:21:49.145Z,19423.66
2023-04-18T18:24:18.611Z,19456.16
2023-04-18T18:26:46.841Z,19411.44
2023-04-18T18:29:16.534Z,19409.41
2023-04-18T18:31:44.988Z,19427.72
2023-04-18T18:34:13.164Z,19395.19
2023-04-18T18:36:41.264Z,19429.75
2023-04-18T18:39:09.432Z,19419.59
2023-04-18T18:41:37.520Z,19389.09
2023-04-18T18:44:06.909Z,19370.81
2023-04-18T18:46:36.401Z,19385.03
2023-04-18T18:49:04.620Z,19405.34
2023-04-18T18:51:32.891Z,19405.34
2023-04-18T18:54:01.017Z,19407.38
2023-04-18T18:56:29.165Z,19407.38
2023-04-18T18:58:57.294Z,19415.50
2023-04-18T19:01:25.643Z,19389.09
2023-04-18T19:03:55.384Z,19366.75
2023-04-18T19:06:23.669Z,19395.19
2023-04-18T19:08:51.807Z,19452.09
2023-04-18T19:11:20.979Z,19405.34
2023-04-18T19:13:52.036Z,19417.56
2023-04-18T19:16:20.381Z,19423.66
2023-04-18T19:18:50.412Z,19415.50
2023-04-18T19:21:20.567Z,19413.47
2023-04-18T19:23:48.774Z,19435.84
2023-04-18T19:26:16.985Z,19401.28
2023-04-18T19:28:45.138Z,19409.41
2023-04-18T19:31:13.360Z,19407.38
2023-04-18T19:33:41.536Z,19387.06
2023-04-18T19:36:09.766Z,19403.31
2023-04-18T19:38:39.271Z,19374.88
2023-04-18T19:41:07.384Z,19380.97
2023-04-18T19:43:38.287Z,19385.03
2023-04-18T19:46:06.469Z,19405.34
2023-04-18T19:48:34.642Z,19419.59
2023-04-18T19:51:04.207Z,19409.41
2023-04-18T19:53:32.353Z,19409.41
2023-04-18T19:56:01.849Z,19411.44
2023-04-18T19:58:37.901Z,19399.25
2023-04-18T20:01:07.574Z,19441.94
2023-04-18T20:03:35.797Z,19409.41
2023-04-18T20:06:05.471Z,19374.88
2023-04-18T20:08:35.944Z,19383.00
2023-04-18T20:11:07.928Z,19401.28
2023-04-18T20:13:37.329Z,19415.50
2023-04-18T20:16:07.197Z,19415.50
2023-04-18T20:18:35.914Z,19376.91
2023-04-18T20:21:04.540Z,19415.50
2023-04-18T20:23:32.733Z,19407.38
2023-04-18T20:26:01.003Z,19448.03
2023-04-18T20:28:30.505Z,19411.44
2023-04-18T20:30:58.710Z,19405.34
2023-04-18T20:33:26.964Z,19411.44
2023-04-18T20:35:55.209Z,19413.47
2023-04-18T20:38:25.816Z,19399.25
2023-04-18T20:40:54.613Z,19450.06
2023-04-18T20:43:23.093Z,19411.44
2023-04-18T20:45:53.836Z,19448.03
2023-04-18T20:48:22.447Z,19470.38
2023-04-18T20:50:51.941Z,19441.94
2023-04-18T20:53:21.655Z,19464.28
2023-04-18T20:55:50.200Z,19421.63
2023-04-18T20:58:18.355Z,19437.88
2023-04-18T21:00:46.554Z,19433.81
2023-04-18T21:03:17.251Z,19417.56
2023-04-18T21:05:46.116Z,19476.47
2023-04-18T21:08:14.265Z,19425.69
2023-04-18T21:10:42.390Z,19421.63
2023-04-18T21:13:12.466Z,19433.81
2023-04-18T21:15:42.622Z,19417.56
2023-04-18T21:18:10.840Z,19474.44
2023-04-18T21:20:40.321Z,19433.81
2023-04-18T21:23:08.549Z,19427.72
2023-04-18T21:25:36.677Z,19423.66
2023-04-18T21:28:05.307Z,19413.47
2023-04-18T21:30:33.555Z,19441.94
2023-04-18T21:33:01.685Z,19446.00
2023-04-18T21:35:29.974Z,19470.38
2023-04-18T21:37:59.695Z,19458.19
2023-04-18T21:40:30.559Z,19478.50
2023-04-18T21:42:58.746Z,19504.94
2023-04-18T21:45:27.240Z,19474.44
2023-04-18T21:47:55.426Z,19456.16
2023-04-18T21:50:24.300Z,19462.25
2023-04-18T21:52:52.373Z,19452.09
2023-04-18T21:55:22.066Z,19421.63
2023-04-18T21:57:50.406Z,19395.19
2023-04-18T22:00:20.366Z,19423.66
2023-04-18T22:02:48.562Z,19439.91
2023-04-18T22:05:17.149Z,19466.31
2023-04-18T22:07:54.922Z,19446.00
2023-04-18T22:10:27.332Z,19456.16
2023-04-18T22:12:56.023Z,19443.97
2023-04-18T22:15:26.946Z,19460.22
2023-04-18T22:17:55.344Z,19439.91
2023-04-18T22:20:25.497Z,19458.19
2023-04-18T22:22:54.165Z,19433.81
2023-04-18T22:25:22.235Z,19448.03
2023-04-18T22:27:51.804Z,19462.25
2023-04-18T22:30:19.923Z,19454.13
2023-04-18T22:32:48.337Z,19464.28
2023-04-18T22:35:17.350Z,19425.69
2023-04-18T22:37:45.456Z,19456.16
2023-04-18T22:40:15.605Z,19441.94
2023-04-18T22:42:44.268Z,19435.84
2023-04-18T22:45:14.588Z,19437.88
2023-04-18T22:47:42.755Z,19476.47
2023-04-18T22:50:11.709Z,19488.69
2023-04-18T22:52:39.886Z,19446.00
2023-04-18T22:55:09.310Z,19443.97
2023-04-18T22:57:39.021Z,19500.88
2023-04-18T23:00:10.035Z,19456.16
2023-04-18T23:02:39.657Z,19437.88
2023-04-18T23:05:10.738Z,19448.03
2023-04-18T23:07:38.895Z,19427.72
2023-04-18T23:10:09.085Z,19468.34
2023-04-18T23:12:37.210Z,19448.03
2023-04-18T23:15:06.680Z,19437.88
2023-04-18T23:17:34.986Z,19437.88
2023-04-18T23:20:06.721Z,19466.31
2023-04-18T23:22:34.916Z,19452.09
2023-04-18T23:25:03.367Z,19460.22
2023-04-18T23:27:31.536Z,19439.91
2023-04-18T23:29:59.663Z,19452.09
2023-04-18T23:32:27.821Z,19421.63
2023-04-18T23:34:55.930Z,19464.28
2023-04-18T23:37:25.664Z,19460.22
2023-04-18T23:39:53.778Z,19470.38
2023-04-18T23:42:21.865Z,19472.41
2023-04-18T23:44:50.372Z,19452.09
2023-04-18T23:47:18.633Z,19470.38
2023-04-18T23:49:46.832Z,19472.41
2023-04-18T23:52:14.962Z,19464.28
2023-04-18T23:54:44.505Z,19431.78
2023-04-18T23:57:12.615Z,19435.84
2023-04-18T23:59:40.894Z,19468.34
